createdAt,value
2023-04-18T00:02:04.723Z,90.81
2023-04-18T00:04:34.067Z,90.63
2023-04-18T00:07:03.754Z,90.98
2023-04-18T00:09:31.717Z,90.83
2023-04-18T00:11:59.914Z,90.94
2023-04-18T00:14:30.803Z,91.34
2023-04-18T00:17:02.179Z,91.25
2023-04-18T00:19:30.207Z,91.23
2023-04-18T00:22:02.163Z,90.90
2023-04-18T00:24:30.127Z,91.21
2023-04-18T00:26:58.337Z,91.07
2023-04-18T00:29:26.402Z,91.19
2023-04-18T00:31:55.319Z,91.12
2023-04-18T00:34:25.165Z,91.06
2023-04-18T00:36:54.907Z,90.98
2023-04-18T00:39:24.129Z,90.14
2023-04-18T00:41:53.604Z,90.71
2023-04-18T00:44:21.517Z,90.69
2023-04-18T00:46:51.241Z,90.11
2023-04-18T00:49:21.598Z,90.10
2023-04-18T00:51:51.074Z,90.08
2023-04-18T00:54:19.798Z,89.94
2023-04-18T00:56:47.931Z,89.38
2023-04-18T00:59:17.046Z,89.56
2023-04-18T01:01:45.217Z,89.82
2023-04-18T01:04:13.934Z,89.34
2023-04-18T01:06:44.024Z,89.35
2023-04-18T01:09:14.450Z,89.40
2023-04-18T01:11:42.879Z,89.17
2023-04-18T01:14:11.206Z,89.38
2023-04-18T01:16:39.542Z,89.33
2023-04-18T01:19:08.342Z,89.17
2023-04-18T01:21:37.308Z,89.11
2023-04-18T01:24:10.649Z,89.90
2023-04-18T01:26:38.963Z,89.46
2023-04-18T01:29:07.664Z,89.05
2023-04-18T01:31:37.004Z,89.34
2023-04-18T01:34:06.750Z,89.76
2023-04-18T01:36:36.418Z,89.67
2023-04-18T01:39:05.098Z,89.75
2023-04-18T01:41:35.182Z,89.88
2023-04-18T01:44:05.908Z,90.17
2023-04-18T01:46:34.202Z,90.29
2023-04-18T01:49:02.807Z,90.35
2023-04-18T01:51:31.302Z,90.21
2023-04-18T01:54:00.192Z,90.39
2023-04-18T01:56:28.350Z,90.03
2023-04-18T01:59:02.477Z,90.20
2023-04-18T02:01:31.881Z,90.26
2023-04-18T02:04:00.811Z,90.36
2023-04-18T02:06:28.861Z,90.24
2023-04-18T02:08:56.838Z,89.94
2023-04-18T02:11:26.469Z,90.37
2023-04-18T02:13:54.418Z,90.21
2023-04-18T02:16:26.711Z,89.89
2023-04-18T02:18:55.781Z,89.59
2023-04-18T02:21:24.938Z,89.52
2023-04-18T02:23:53.712Z,89.45
2023-04-18T02:26:25.362Z,89.30
2023-04-18T02:28:54.316Z,89.63
2023-04-18T02:31:24.729Z,89.13
2023-04-18T02:33:55.858Z,89.00
2023-04-18T02:36:23.815Z,88.83
2023-04-18T02:38:52.044Z,88.70
2023-04-18T02:41:22.167Z,88.49
2023-04-18T02:43:50.449Z,88.72
2023-04-18T02:46:20.700Z,88.69
2023-04-18T02:48:51.783Z,88.57
2023-04-18T02:51:23.934Z,88.55
2023-04-18T02:53:55.153Z,89.24
2023-04-18T02:56:25.133Z,89.02
2023-04-18T02:59:12.957Z,88.87
2023-04-18T03:02:06.451Z,87.96
2023-04-18T03:04:37.358Z,88.01
2023-04-18T03:07:08.181Z,88.36
2023-04-18T03:09:38.448Z,88.38
2023-04-18T03:12:17.101Z,88.03
2023-04-18T03:14:50.021Z,88.05
2023-04-18T03:17:18.260Z,87.81
2023-04-18T03:19:50.928Z,87.98
2023-04-18T03:22:21.288Z,87.81
2023-04-18T03:24:55.126Z,87.95
2023-04-18T03:27:30.253Z,87.33
2023-04-18T03:29:58.579Z,87.37
2023-04-18T03:32:26.895Z,87.25
2023-04-18T03:34:56.301Z,87.23
2023-04-18T03:37:25.574Z,87.21
2023-04-18T03:39:56.071Z,86.79
2023-04-18T03:42:28.830Z,87.17
2023-04-18T03:44:57.232Z,87.28
2023-04-18T03:47:25.518Z,87.24
2023-04-18T03:49:59.855Z,87.42
2023-04-18T03:52:29.856Z,87.34
2023-04-18T03:54:59.034Z,87.58
2023-04-18T03:57:33.004Z,87.33
2023-04-18T04:00:04.691Z,87.10
2023-04-18T04:02:44.124Z,87.46
2023-04-18T04:05:20.561Z,87.65
2023-04-18T04:07:50.757Z,87.83
2023-04-18T04:10:20.035Z,87.77
2023-04-18T04:12:49.443Z,87.55
2023-04-18T04:15:18.602Z,87.23
2023-04-18T04:17:52.673Z,87.72
2023-04-18T04:20:24.813Z,87.82
2023-04-18T04:23:01.375Z,87.73
2023-04-18T04:25:30.959Z,87.95
2023-04-18T04:28:02.886Z,88.22
2023-04-18T04:30:34.504Z,87.96
2023-04-18T04:33:06.485Z,88.14
2023-04-18T04:35:36.838Z,88.09
2023-04-18T04:38:07.199Z,88.27
2023-04-18T04:40:44.926Z,88.65
2023-04-18T04:43:15.764Z,88.36
2023-04-18T04:45:45.583Z,88.50
2023-04-18T04:48:13.996Z,88.18
2023-04-18T04:50:52.632Z,88.39
2023-04-18T04:53:20.678Z,88.55
2023-04-18T04:55:49.681Z,88.70
2023-04-18T04:58:18.931Z,88.67
2023-04-18T05:01:02.228Z,88.42
2023-04-18T05:03:32.210Z,88.15
2023-04-18T05:06:02.258Z,87.77
2023-04-18T05:08:31.836Z,87.64
2023-04-18T05:11:01.258Z,88.08
2023-04-18T05:13:29.825Z,88.16
2023-04-18T05:15:59.388Z,88.12
2023-04-18T05:18:28.501Z,87.44
2023-04-18T05:20:56.940Z,87.24
2023-04-18T05:23:26.876Z,86.79
2023-04-18T05:25:56.024Z,87.00
2023-04-18T05:28:26.663Z,86.90
2023-04-18T05:31:01.035Z,87.11
2023-04-18T05:33:29.740Z,86.08
2023-04-18T05:35:58.276Z,85.89
2023-04-18T05:38:27.617Z,85.77
2023-04-18T05:41:00.340Z,85.18
2023-04-18T05:43:28.622Z,85.36
2023-04-18T05:45:57.885Z,85.14
2023-04-18T05:48:27.181Z,85.20
2023-04-18T05:50:55.822Z,84.51
2023-04-18T05:53:23.825Z,85.16
2023-04-18T05:55:53.424Z,85.13
2023-04-18T05:58:22.366Z,84.16
2023-04-18T06:00:50.617Z,84.50
2023-04-18T06:03:19.157Z,83.61
2023-04-18T06:05:47.660Z,83.24
2023-04-18T06:08:16.872Z,83.13
2023-04-18T06:10:44.829Z,83.04
2023-04-18T06:13:14.175Z,82.47
2023-04-18T06:15:43.017Z,82.54
2023-04-18T06:18:11.746Z,81.48
2023-04-18T06:20:42.064Z,81.58
2023-04-18T06:23:11.591Z,81.13
2023-04-18T06:25:42.233Z,80.88
2023-04-18T06:28:12.602Z,80.75
2023-04-18T06:30:41.876Z,80.68
2023-04-18T06:33:11.225Z,80.68
2023-04-18T06:35:40.476Z,80.46
2023-04-18T06:38:12.891Z,81.13
2023-04-18T06:40:41.144Z,80.80
2023-04-18T06:43:09.196Z,80.31
2023-04-18T06:45:37.520Z,80.18
2023-04-18T06:48:09.075Z,80.28
2023-04-18T06:50:37.914Z,80.47
2023-04-18T06:53:13.919Z,80.49
2023-04-18T06:55:44.368Z,80.64
2023-04-18T06:58:13.712Z,80.34
2023-04-18T07:00:42.225Z,80.15
2023-04-18T07:03:13.711Z,80.25
2023-04-18T07:05:42.227Z,79.15
2023-04-18T07:08:11.008Z,78.83
2023-04-18T07:10:40.923Z,78.59
2023-04-18T07:13:09.050Z,77.38
2023-04-18T07:15:41.748Z,74.98
2023-04-18T07:18:09.954Z,72.79
2023-04-18T07:20:40.975Z,70.45
2023-04-18T07:23:10.357Z,66.70
2023-04-18T07:25:38.560Z,61.28
2023-04-18T07:28:07.096Z,59.28
2023-04-18T07:30:35.069Z,54.51
2023-04-18T07:33:04.926Z,50.10
2023-04-18T07:35:33.904Z,48.88
2023-04-18T07:38:03.592Z,49.55
2023-04-18T07:40:31.572Z,51.55
2023-04-18T07:43:01.676Z,56.47
2023-04-18T07:45:29.703Z,59.01
2023-04-18T07:47:58.311Z,59.86
2023-04-18T07:50:26.940Z,61.07
2023-04-18T07:52:55.642Z,62.48
2023-04-18T07:55:25.378Z,62.40
2023-04-18T07:57:53.870Z,63.36
2023-04-18T08:00:22.953Z,66.75
2023-04-18T08:02:51.199Z,69.69
2023-04-18T08:05:20.296Z,71.62
2023-04-18T08:07:48.657Z,70.93
2023-04-18T08:10:16.840Z,70.63
2023-04-18T08:12:46.276Z,70.27
2023-04-18T08:15:14.800Z,71.97
2023-04-18T08:17:45.054Z,71.65
2023-04-18T08:20:13.852Z,71.96
2023-04-18T08:23:01.292Z,71.27
2023-04-18T08:25:31.602Z,71.80
2023-04-18T08:28:04.367Z,72.21
2023-04-18T08:30:33.468Z,72.63
2023-04-18T08:33:04.077Z,73.81
2023-04-18T08:35:32.117Z,74.11
2023-04-18T08:38:00.937Z,74.37
2023-04-18T08:40:30.222Z,74.16
2023-04-18T08:43:04.752Z,73.73
2023-04-18T08:45:33.301Z,74.38
2023-04-18T08:48:17.681Z,74.39
2023-04-18T08:50:48.153Z,74.54
2023-04-18T08:53:18.587Z,73.21
2023-04-18T08:55:50.589Z,74.40
2023-04-18T08:58:23.653Z,73.81
2023-04-18T09:00:53.228Z,72.95
2023-04-18T09:03:37.459Z,72.52
2023-04-18T09:06:13.612Z,71.61
2023-04-18T09:08:43.994Z,70.53
2023-04-18T09:11:23.939Z,65.87
2023-04-18T09:13:56.325Z,63.35
2023-04-18T09:16:25.020Z,63.47
2023-04-18T09:19:13.124Z,62.64
2023-04-18T09:21:44.313Z,60.22
2023-04-18T09:24:22.786Z,60.17
2023-04-18T09:26:51.404Z,59.17
2023-04-18T09:29:22.447Z,59.03
2023-04-18T09:31:59.751Z,58.66
2023-04-18T09:34:28.470Z,59.68
2023-04-18T09:37:10.136Z,61.18
2023-04-18T09:39:39.451Z,60.64
2023-04-18T09:42:12.627Z,61.13
2023-04-18T09:45:02.671Z,61.36
2023-04-18T09:47:32.401Z,62.45
2023-04-18T09:50:08.751Z,62.36
2023-04-18T09:52:38.389Z,62.80
2023-04-18T09:55:08.556Z,62.31
2023-04-18T09:57:39.224Z,62.62
2023-04-18T10:00:17.736Z,63.15
2023-04-18T10:02:50.179Z,65.35
2023-04-18T10:05:21.239Z,65.09
2023-04-18T10:07:51.295Z,65.37
2023-04-18T10:10:21.017Z,65.21
2023-04-18T10:12:50.737Z,64.26
2023-04-18T10:15:22.357Z,62.76
2023-04-18T10:20:29.926Z,60.76
2023-04-18T10:22:59.510Z,60.32
2023-04-18T10:25:52.628Z,62.79
2023-04-18T10:28:24.651Z,64.31
2023-04-18T10:30:56.866Z,64.28
2023-04-18T10:33:34.460Z,63.76
2023-04-18T10:36:22.465Z,63.39
2023-04-18T10:38:51.824Z,61.64
2023-04-18T10:41:24.589Z,62.33
2023-04-18T10:44:19.353Z,63.75
2023-04-18T10:47:24.790Z,62.43
2023-04-18T10:50:01.377Z,61.82
2023-04-18T10:52:32.056Z,60.67
2023-04-18T10:55:21.856Z,62.09
2023-04-18T10:57:51.714Z,64.04
2023-04-18T11:00:21.850Z,65.58
2023-04-18T11:02:56.087Z,64.59
2023-04-18T11:05:27.135Z,63.17
2023-04-18T11:07:55.608Z,62.30
2023-04-18T11:10:25.554Z,61.86
2023-04-18T11:12:54.503Z,61.25
2023-04-18T11:15:24.053Z,60.44
2023-04-18T11:18:01.974Z,61.44
2023-04-18T11:20:40.115Z,62.12
2023-04-18T11:23:17.288Z,62.22
2023-04-18T11:25:45.876Z,63.26
2023-04-18T11:28:16.776Z,63.29
2023-04-18T11:30:44.675Z,64.29
2023-04-18T11:33:19.122Z,63.35
2023-04-18T11:35:47.993Z,63.16
2023-04-18T11:38:17.076Z,63.05
2023-04-18T11:40:49.131Z,63.11
2023-04-18T11:43:21.612Z,62.83
2023-04-18T11:45:53.958Z,64.32
2023-04-18T11:48:23.722Z,62.97
2023-04-18T11:50:52.136Z,62.73
2023-04-18T11:53:34.627Z,63.03
2023-04-18T11:56:04.862Z,62.53
2023-04-18T11:58:33.422Z,62.28
2023-04-18T12:01:02.010Z,62.73
2023-04-18T12:03:31.714Z,62.54
2023-04-18T12:06:03.611Z,62.02
2023-04-18T12:08:33.199Z,61.43
2023-04-18T12:11:02.998Z,61.59
2023-04-18T12:13:33.529Z,62.06
2023-04-18T12:16:03.309Z,61.75
2023-04-18T12:18:32.984Z,63.11
2023-04-18T12:21:02.352Z,63.77
2023-04-18T12:23:35.790Z,63.85
2023-04-18T12:26:04.939Z,63.59
2023-04-18T12:28:33.892Z,63.61
2023-04-18T12:31:02.705Z,63.11
2023-04-18T12:33:32.098Z,63.18
2023-04-18T12:36:00.438Z,63.63
2023-04-18T12:38:28.805Z,64.17
2023-04-18T12:40:57.010Z,64.49
2023-04-18T12:43:26.655Z,65.29
2023-04-18T12:45:55.918Z,65.27
2023-04-18T12:48:23.980Z,65.32
2023-04-18T12:50:53.649Z,64.48
2023-04-18T12:53:21.691Z,65.12
2023-04-18T12:55:49.642Z,64.83
2023-04-18T12:58:18.709Z,65.23
2023-04-18T13:00:46.781Z,63.76
2023-04-18T13:03:14.887Z,63.96
2023-04-18T13:05:43.184Z,63.15
2023-04-18T13:08:17.512Z,62.88
2023-04-18T13:10:47.588Z,63.84
2023-04-18T13:13:18.571Z,63.42
2023-04-18T13:15:54.742Z,63.03
2023-04-18T13:18:25.868Z,63.68
2023-04-18T13:20:56.945Z,63.12
2023-04-18T13:23:27.057Z,64.92
2023-04-18T13:25:55.986Z,64.81
2023-04-18T13:28:27.641Z,64.32
2023-04-18T13:30:59.685Z,63.37
2023-04-18T13:33:27.734Z,64.46
2023-04-18T13:35:55.884Z,64.51
2023-04-18T13:38:24.044Z,66.00
2023-04-18T13:41:08.857Z,64.91
2023-04-18T13:43:40.280Z,64.13
2023-04-18T13:46:08.197Z,63.67
2023-04-18T13:48:36.417Z,63.23
2023-04-18T13:51:07.126Z,62.92
2023-04-18T13:53:35.403Z,63.10
2023-04-18T13:56:05.005Z,61.92
2023-04-18T13:58:33.110Z,61.83
2023-04-18T14:01:01.735Z,62.39
2023-04-18T14:03:30.010Z,62.04
2023-04-18T14:05:59.301Z,61.53
2023-04-18T14:08:27.576Z,61.33
2023-04-18T14:10:55.815Z,60.31
2023-04-18T14:13:26.142Z,60.70
2023-04-18T14:15:54.847Z,60.24
2023-04-18T14:18:24.624Z,60.01
2023-04-18T14:20:53.480Z,60.31
2023-04-18T14:23:23.698Z,61.13
2023-04-18T14:25:57.870Z,60.97
2023-04-18T14:28:28.853Z,62.04
2023-04-18T14:31:01.001Z,62.29
2023-04-18T14:33:29.846Z,62.89
2023-04-18T14:35:58.351Z,62.91
2023-04-18T14:38:27.769Z,62.53
2023-04-18T14:40:56.441Z,62.65
2023-04-18T14:43:24.699Z,62.85
2023-04-18T14:45:54.376Z,63.50
2023-04-18T14:48:26.406Z,62.88
2023-04-18T14:50:58.792Z,63.40
2023-04-18T14:53:30.686Z,63.60
2023-04-18T14:55:58.659Z,63.74
2023-04-18T14:58:29.465Z,63.44
2023-04-18T15:00:59.005Z,63.43
2023-04-18T15:03:28.870Z,63.86
2023-04-18T15:06:03.262Z,63.81
2023-04-18T15:08:44.230Z,63.97
2023-04-18T15:11:15.671Z,64.13
2023-04-18T15:13:45.691Z,63.55
2023-04-18T15:16:15.940Z,63.23
2023-04-18T15:18:54.624Z,62.46
2023-04-18T15:21:22.619Z,62.52
2023-04-18T15:23:51.223Z,62.68
2023-04-18T15:26:19.278Z,62.79
2023-04-18T15:28:47.629Z,62.67
2023-04-18T15:31:17.885Z,62.97
2023-04-18T15:33:46.008Z,62.38
2023-04-18T15:36:14.509Z,62.74
2023-04-18T15:38:43.861Z,62.39
2023-04-18T15:41:15.870Z,62.84
2023-04-18T15:43:45.486Z,62.51
2023-04-18T15:46:14.694Z,62.22
2023-04-18T15:48:44.407Z,62.05
2023-04-18T15:51:12.379Z,62.24
2023-04-18T15:53:40.883Z,62.33
2023-04-18T15:56:10.144Z,62.50
2023-04-18T15:58:38.625Z,62.14
2023-04-18T16:01:08.630Z,62.28
2023-04-18T16:03:37.772Z,62.15
2023-04-18T16:06:09.706Z,61.74
2023-04-18T16:08:38.678Z,61.59
2023-04-18T16:11:07.034Z,61.35
2023-04-18T16:13:38.272Z,61.00
2023-04-18T16:16:07.446Z,60.15
2023-04-18T16:18:37.825Z,60.44
2023-04-18T16:21:07.610Z,60.05
2023-04-18T16:23:35.643Z,59.51
2023-04-18T16:26:04.440Z,59.19
2023-04-18T16:28:37.496Z,59.92
2023-04-18T16:31:08.785Z,60.23
2023-04-18T16:33:36.972Z,60.52
2023-04-18T16:36:05.965Z,60.58
2023-04-18T16:38:35.440Z,61.23
2023-04-18T16:41:03.721Z,61.03
2023-04-18T16:43:36.355Z,60.93
2023-04-18T16:46:04.708Z,61.48
2023-04-18T16:48:36.513Z,61.64
2023-04-18T16:51:05.967Z,61.17
2023-04-18T16:53:36.012Z,60.68
2023-04-18T16:56:12.706Z,60.21
2023-04-18T16:58:42.669Z,60.89
2023-04-18T17:01:10.889Z,60.05
2023-04-18T17:03:40.935Z,60.51
2023-04-18T17:06:09.760Z,60.79
2023-04-18T17:08:40.690Z,60.96
2023-04-18T17:11:13.664Z,60.82
2023-04-18T17:13:43.089Z,61.11
2023-04-18T17:16:15.075Z,61.48
2023-04-18T17:18:45.842Z,61.57
2023-04-18T17:21:19.091Z,61.77
2023-04-18T17:23:51.018Z,61.85
2023-04-18T17:26:28.206Z,62.25
2023-04-18T17:28:59.346Z,62.56
2023-04-18T17:31:28.262Z,63.16
2023-04-18T17:33:57.555Z,63.22
2023-04-18T17:36:26.079Z,63.31
2023-04-18T17:38:59.926Z,63.89
2023-04-18T17:41:30.360Z,63.87
2023-04-18T17:43:58.902Z,63.88
2023-04-18T17:46:28.367Z,64.27
2023-04-18T17:48:57.717Z,64.38
2023-04-18T17:51:27.801Z,64.22
2023-04-18T17:54:00.173Z,64.61
2023-04-18T17:56:31.894Z,65.22
2023-04-18T17:59:00.134Z,64.43
2023-04-18T18:01:30.485Z,65.19
2023-04-18T18:03:59.336Z,65.57
2023-04-18T18:06:30.457Z,65.83
2023-04-18T18:09:01.827Z,66.05
2023-04-18T18:11:29.952Z,66.61
2023-04-18T18:13:57.922Z,66.36
2023-04-18T18:16:26.343Z,65.79
2023-04-18T18:18:54.835Z,65.96
2023-04-18T18:21:23.970Z,65.78
2023-04-18T18:23:52.746Z,65.17
2023-04-18T18:26:26.523Z,65.24
2023-04-18T18:28:55.302Z,65.69
2023-04-18T18:31:24.939Z,65.27
2023-04-18T18:33:53.407Z,65.57
2023-04-18T18:36:21.772Z,65.21
2023-04-18T18:38:49.795Z,65.23
2023-04-18T18:41:18.606Z,65.07
2023-04-18T18:43:50.545Z,65.09
2023-04-18T18:46:19.623Z,65.63
2023-04-18T18:48:48.494Z,65.23
2023-04-18T18:51:19.034Z,65.68
2023-04-18T18:53:47.371Z,65.36
2023-04-18T18:56:16.389Z,65.45
2023-04-18T18:58:50.754Z,65.12
2023-04-18T19:01:30.349Z,65.28
2023-04-18T19:03:59.511Z,65.04
2023-04-18T19:06:29.588Z,64.74
2023-04-18T19:09:01.165Z,64.56
2023-04-18T19:11:30.605Z,64.18
2023-04-18T19:14:00.071Z,64.13
2023-04-18T19:16:31.435Z,63.66
2023-04-18T19:19:00.417Z,63.51
2023-04-18T19:21:29.346Z,63.80
2023-04-18T19:23:58.008Z,63.93
2023-04-18T19:26:27.513Z,63.32
2023-04-18T19:28:55.720Z,63.40
2023-04-18T19:31:24.382Z,63.45
2023-04-18T19:33:53.895Z,63.91
2023-04-18T19:36:22.452Z,64.11
2023-04-18T19:38:51.032Z,64.05
2023-04-18T19:41:23.164Z,64.36
2023-04-18T19:43:53.580Z,64.18
2023-04-18T19:46:22.882Z,65.35
2023-04-18T19:48:53.680Z,65.85
2023-04-18T19:51:24.843Z,65.77
2023-04-18T19:53:59.678Z,66.00
2023-04-18T19:56:27.873Z,66.78
2023-04-18T19:58:58.629Z,66.85
2023-04-18T20:01:30.692Z,67.09
2023-04-18T20:04:03.071Z,67.39
2023-04-18T20:06:31.829Z,68.12
2023-04-18T20:09:05.741Z,68.30
2023-04-18T20:11:33.782Z,68.57
2023-04-18T20:14:04.449Z,68.65
2023-04-18T20:16:44.044Z,68.86
2023-04-18T20:19:14.916Z,69.37
2023-04-18T20:21:43.639Z,69.55
2023-04-18T20:24:11.746Z,69.83
2023-04-18T20:26:40.492Z,69.96
2023-04-18T20:29:12.966Z,71.04
2023-04-18T20:31:43.265Z,70.33
2023-04-18T20:34:11.343Z,70.84
2023-04-18T20:37:07.433Z,70.76
2023-04-18T20:40:03.057Z,71.76
2023-04-18T20:42:34.493Z,71.38
2023-04-18T20:45:03.059Z,71.51
2023-04-18T20:47:32.043Z,71.90
2023-04-18T20:50:00.749Z,72.33
2023-04-18T20:52:29.962Z,72.55
2023-04-18T20:54:58.130Z,72.56
2023-04-18T20:57:26.361Z,72.61
2023-04-18T20:59:54.464Z,72.75
2023-04-18T21:02:22.554Z,72.71
2023-04-18T21:04:51.745Z,73.16
2023-04-18T21:07:20.287Z,73.35
2023-04-18T21:09:49.682Z,73.70
2023-04-18T21:12:18.619Z,74.02
2023-04-18T21:14:48.034Z,74.51
2023-04-18T21:17:17.439Z,74.60
2023-04-18T21:19:46.671Z,74.79
2023-04-18T21:22:14.928Z,75.14
2023-04-18T21:24:42.962Z,75.75
2023-04-18T21:27:12.175Z,75.78
2023-04-18T21:29:40.506Z,76.18
2023-04-18T21:32:09.049Z,76.54
2023-04-18T21:34:36.973Z,76.78
2023-04-18T21:37:06.409Z,76.89
2023-04-18T21:39:35.741Z,76.92
2023-04-18T21:42:06.248Z,77.11
2023-04-18T21:44:44.022Z,77.36
2023-04-18T21:47:11.979Z,78.02
2023-04-18T21:49:40.006Z,77.96
2023-04-18T21:52:09.036Z,77.64
2023-04-18T21:54:37.394Z,77.81
2023-04-18T21:57:06.610Z,77.78
2023-04-18T21:59:36.999Z,77.81
2023-04-18T22:02:05.930Z,77.41
2023-04-18T22:04:34.458Z,77.05
2023-04-18T22:07:02.843Z,77.28
2023-04-18T22:09:31.389Z,77.14
2023-04-18T22:11:59.481Z,76.70
2023-04-18T22:14:28.136Z,77.08
2023-04-18T22:16:58.830Z,75.62
2023-04-18T22:19:31.254Z,74.95
2023-04-18T22:22:04.381Z,75.00
2023-04-18T22:24:35.824Z,73.83
2023-04-18T22:27:04.882Z,73.93
2023-04-18T22:29:34.169Z,73.54
2023-04-18T22:32:06.466Z,74.77
2023-04-18T22:34:34.436Z,73.35
2023-04-18T22:37:02.561Z,72.77
2023-04-18T22:39:31.607Z,72.41
2023-04-18T22:41:59.768Z,72.24
2023-04-18T22:44:27.626Z,71.87
2023-04-18T22:46:55.858Z,71.87
2023-04-18T22:49:25.328Z,72.02
2023-04-18T22:51:54.612Z,72.08
2023-04-18T22:54:22.825Z,72.47
2023-04-18T22:56:51.112Z,72.50
2023-04-18T22:59:19.161Z,72.66
2023-04-18T23:01:48.127Z,72.66
2023-04-18T23:04:16.825Z,72.81
2023-04-18T23:06:47.372Z,72.46
2023-04-18T23:09:19.509Z,71.90
2023-04-18T23:11:47.870Z,71.92
2023-04-18T23:14:16.710Z,71.34
2023-04-18T23:16:45.503Z,70.95
2023-04-18T23:19:13.481Z,71.21
2023-04-18T23:21:41.513Z,71.14
2023-04-18T23:24:12.487Z,70.04
2023-04-18T23:26:41.930Z,69.65
2023-04-18T23:29:09.933Z,69.20
2023-04-18T23:31:38.044Z,69.40
2023-04-18T23:34:06.016Z,68.50
2023-04-18T23:36:34.258Z,68.13
2023-04-18T23:39:03.057Z,67.87
2023-04-18T23:41:32.488Z,67.69
2023-04-18T23:44:03.031Z,67.41
2023-04-18T23:46:31.007Z,67.50
2023-04-18T23:48:59.073Z,66.78
2023-04-18T23:51:27.935Z,67.37
2023-04-18T23:53:57.021Z,66.47
2023-04-18T23:56:25.323Z,66.11
2023-04-18T23:58:54.978Z,65.69
